sensor_id;sensor_type;location;lat;lon;timestamp;P1;durP1;ratioP1;P2;durP2;ratioP2
51499;SDS011;39101;53.478;6.158;2023-04-09T00:01:09;122.93;;;84.60;;
51499;SDS011;39101;53.478;6.158;2023-04-09T00:03:37;124.20;;;84.27;;
51499;SDS011;39101;53.478;6.158;2023-04-09T00:06:03;130.17;;;86.90;;
51499;SDS011;39101;53.478;6.158;2023-04-09T00:08:29;120.50;;;82.57;;
51499;SDS011;39101;53.478;6.158;2023-04-09T00:10:55;118.97;;;82.70;;
51499;SDS011;39101;53.478;6.158;2023-04-09T00:13:22;123.73;;;82.73;;
51499;SDS011;39101;53.478;6.158;2023-04-09T00:15:48;124.97;;;84.50;;
51499;SDS011;39101;53.478;6.158;2023-04-09T00:18:14;119.73;;;78.93;;
51499;SDS011;39101;53.478;6.158;2023-04-09T00:20:41;116.50;;;75.53;;
51499;SDS011;39101;53.478;6.158;2023-04-09T00:23:08;114.63;;;74.43;;
51499;SDS011;39101;53.478;6.158;2023-04-09T00:25:33;111.43;;;74.50;;
51499;SDS011;39101;53.478;6.158;2023-04-09T00:27:59;119.60;;;74.17;;
51499;SDS011;39101;53.478;6.158;2023-04-09T00:30:27;112.43;;;75.93;;
51499;SDS011;39101;53.478;6.158;2023-04-09T00:32:54;109.17;;;73.07;;
51499;SDS011;39101;53.478;6.158;2023-04-09T00:35:19;115.20;;;77.17;;
51499;SDS011;39101;53.478;6.158;2023-04-09T00:37:45;114.20;;;74.27;;
51499;SDS011;39101;53.478;6.158;2023-04-09T00:40:11;114.50;;;75.83;;
51499;SDS011;39101;53.478;6.158;2023-04-09T00:42:37;109.10;;;74.37;;
51499;SDS011;39101;53.478;6.158;2023-04-09T00:45:03;114.37;;;76.97;;
51499;SDS011;39101;53.478;6.158;2023-04-09T00:47:30;117.70;;;78.43;;
51499;SDS011;39101;53.478;6.158;2023-04-09T00:49:56;114.03;;;77.63;;
51499;SDS011;39101;53.478;6.158;2023-04-09T00:52:22;121.43;;;80.50;;
51499;SDS011;39101;53.478;6.158;2023-04-09T00:54:51;117.17;;;79.23;;
51499;SDS011;39101;53.478;6.158;2023-04-09T00:57:18;122.55;;;79.32;;
51499;SDS011;39101;53.478;6.158;2023-04-09T00:59:44;118.73;;;80.87;;
51499;SDS011;39101;53.478;6.158;2023-04-09T01:02:10;119.67;;;83.03;;
51499;SDS011;39101;53.478;6.158;2023-04-09T01:04:36;122.70;;;82.80;;
51499;SDS011;39101;53.478;6.158;2023-04-09T01:07:15;116.43;;;79.87;;
51499;SDS011;39101;53.478;6.158;2023-04-09T01:10:24;130.37;;;85.03;;
51499;SDS011;39101;53.478;6.158;2023-04-09T01:15:24;123.00;;;82.23;;
51499;SDS011;39101;53.478;6.158;2023-04-09T01:17:55;115.60;;;77.07;;
51499;SDS011;39101;53.478;6.158;2023-04-09T01:20:29;121.97;;;76.53;;
51499;SDS011;39101;53.478;6.158;2023-04-09T01:22:58;122.47;;;76.20;;
51499;SDS011;39101;53.478;6.158;2023-04-09T01:28:20;122.60;;;74.30;;
51499;SDS011;39101;53.478;6.158;2023-04-09T01:30:51;124.67;;;70.67;;
51499;SDS011;39101;53.478;6.158;2023-04-09T01:33:21;127.37;;;72.73;;
51499;SDS011;39101;53.478;6.158;2023-04-09T01:35:49;124.83;;;69.87;;
51499;SDS011;39101;53.478;6.158;2023-04-09T01:38:17;131.30;;;74.00;;
51499;SDS011;39101;53.478;6.158;2023-04-09T01:40:45;119.03;;;65.80;;
51499;SDS011;39101;53.478;6.158;2023-04-09T01:43:11;119.00;;;67.20;;
51499;SDS011;39101;53.478;6.158;2023-04-09T01:45:39;120.87;;;66.13;;
51499;SDS011;39101;53.478;6.158;2023-04-09T01:48:06;120.60;;;64.77;;
51499;SDS011;39101;53.478;6.158;2023-04-09T01:50:32;119.67;;;64.57;;
51499;SDS011;39101;53.478;6.158;2023-04-09T01:52:58;113.50;;;59.20;;
51499;SDS011;39101;53.478;6.158;2023-04-09T01:55:25;107.33;;;58.90;;
51499;SDS011;39101;53.478;6.158;2023-04-09T01:57:51;102.23;;;55.93;;
51499;SDS011;39101;53.478;6.158;2023-04-09T02:00:17;95.13;;;53.70;;
51499;SDS011;39101;53.478;6.158;2023-04-09T02:03:17;105.47;;;58.00;;
51499;SDS011;39101;53.478;6.158;2023-04-09T02:05:42;97.80;;;53.03;;
51499;SDS011;39101;53.478;6.158;2023-04-09T02:08:13;91.43;;;50.53;;
51499;SDS011;39101;53.478;6.158;2023-04-09T02:13:17;97.53;;;51.70;;
51499;SDS011;39101;53.478;6.158;2023-04-09T02:15:43;99.60;;;53.93;;
51499;SDS011;39101;53.478;6.158;2023-04-09T02:18:21;100.33;;;54.33;;
51499;SDS011;39101;53.478;6.158;2023-04-09T02:20:57;96.97;;;53.50;;
51499;SDS011;39101;53.478;6.158;2023-04-09T02:23:24;96.95;;;52.45;;
51499;SDS011;39101;53.478;6.158;2023-04-09T02:25:51;91.37;;;51.80;;
51499;SDS011;39101;53.478;6.158;2023-04-09T02:28:17;95.77;;;52.40;;
51499;SDS011;39101;53.478;6.158;2023-04-09T02:30:43;96.53;;;52.67;;
51499;SDS011;39101;53.478;6.158;2023-04-09T02:33:09;103.20;;;56.03;;
51499;SDS011;39101;53.478;6.158;2023-04-09T02:35:35;96.67;;;53.77;;
51499;SDS011;39101;53.478;6.158;2023-04-09T02:38:00;99.83;;;54.90;;
51499;SDS011;39101;53.478;6.158;2023-04-09T02:40:27;92.80;;;53.43;;
51499;SDS011;39101;53.478;6.158;2023-04-09T02:42:53;96.17;;;52.97;;
51499;SDS011;39101;53.478;6.158;2023-04-09T02:45:18;95.77;;;55.17;;
51499;SDS011;39101;53.478;6.158;2023-04-09T02:47:44;100.07;;;53.47;;
51499;SDS011;39101;53.478;6.158;2023-04-09T02:50:10;96.87;;;53.03;;
51499;SDS011;39101;53.478;6.158;2023-04-09T02:52:35;86.63;;;50.93;;
51499;SDS011;39101;53.478;6.158;2023-04-09T02:55:01;98.20;;;55.23;;
51499;SDS011;39101;53.478;6.158;2023-04-09T02:57:27;97.77;;;51.80;;
51499;SDS011;39101;53.478;6.158;2023-04-09T02:59:53;99.70;;;52.23;;
51499;SDS011;39101;53.478;6.158;2023-04-09T03:02:19;98.33;;;50.97;;
51499;SDS011;39101;53.478;6.158;2023-04-09T03:04:45;104.63;;;55.43;;
51499;SDS011;39101;53.478;6.158;2023-04-09T03:07:10;95.03;;;50.80;;
51499;SDS011;39101;53.478;6.158;2023-04-09T03:09:36;89.70;;;48.87;;
51499;SDS011;39101;53.478;6.158;2023-04-09T03:12:02;89.33;;;49.87;;
51499;SDS011;39101;53.478;6.158;2023-04-09T03:14:28;90.67;;;47.67;;
51499;SDS011;39101;53.478;6.158;2023-04-09T03:16:53;79.70;;;44.20;;
51499;SDS011;39101;53.478;6.158;2023-04-09T03:19:19;83.97;;;47.00;;
51499;SDS011;39101;53.478;6.158;2023-04-09T03:21:46;75.30;;;41.90;;
51499;SDS011;39101;53.478;6.158;2023-04-09T03:24:13;81.20;;;43.37;;
51499;SDS011;39101;53.478;6.158;2023-04-09T03:26:39;76.73;;;41.60;;
51499;SDS011;39101;53.478;6.158;2023-04-09T03:29:05;79.10;;;42.67;;
51499;SDS011;39101;53.478;6.158;2023-04-09T03:31:32;70.00;;;40.63;;
51499;SDS011;39101;53.478;6.158;2023-04-09T03:33:58;75.67;;;41.20;;
51499;SDS011;39101;53.478;6.158;2023-04-09T03:36:23;70.03;;;37.03;;
51499;SDS011;39101;53.478;6.158;2023-04-09T03:38:51;76.93;;;38.60;;
51499;SDS011;39101;53.478;6.158;2023-04-09T03:41:17;72.67;;;36.83;;
51499;SDS011;39101;53.478;6.158;2023-04-09T03:43:43;65.40;;;37.47;;
51499;SDS011;39101;53.478;6.158;2023-04-09T03:46:12;66.63;;;36.63;;
51499;SDS011;39101;53.478;6.158;2023-04-09T03:48:39;68.45;;;38.05;;
51499;SDS011;39101;53.478;6.158;2023-04-09T03:51:06;66.83;;;36.80;;
51499;SDS011;39101;53.478;6.158;2023-04-09T03:53:35;65.07;;;37.47;;
51499;SDS011;39101;53.478;6.158;2023-04-09T03:56:01;65.40;;;37.83;;
51499;SDS011;39101;53.478;6.158;2023-04-09T03:58:27;69.40;;;39.00;;
51499;SDS011;39101;53.478;6.158;2023-04-09T04:00:53;70.83;;;39.10;;
51499;SDS011;39101;53.478;6.158;2023-04-09T04:03:19;75.67;;;42.50;;
51499;SDS011;39101;53.478;6.158;2023-04-09T04:05:44;72.20;;;41.70;;
51499;SDS011;39101;53.478;6.158;2023-04-09T04:08:10;78.60;;;43.63;;
51499;SDS011;39101;53.478;6.158;2023-04-09T04:10:36;77.63;;;43.13;;
51499;SDS011;39101;53.478;6.158;2023-04-09T04:13:02;84.27;;;42.90;;
51499;SDS011;39101;53.478;6.158;2023-04-09T04:15:28;80.50;;;41.80;;
51499;SDS011;39101;53.478;6.158;2023-04-09T04:17:53;81.13;;;43.93;;
51499;SDS011;39101;53.478;6.158;2023-04-09T04:20:19;78.83;;;43.23;;
51499;SDS011;39101;53.478;6.158;2023-04-09T04:22:45;82.70;;;44.33;;
51499;SDS011;39101;53.478;6.158;2023-04-09T04:25:11;82.33;;;42.73;;
51499;SDS011;39101;53.478;6.158;2023-04-09T04:27:39;79.77;;;44.40;;
51499;SDS011;39101;53.478;6.158;2023-04-09T04:30:06;85.23;;;44.63;;
51499;SDS011;39101;53.478;6.158;2023-04-09T04:32:32;78.67;;;43.10;;
51499;SDS011;39101;53.478;6.158;2023-04-09T04:34:58;85.33;;;47.37;;
51499;SDS011;39101;53.478;6.158;2023-04-09T04:37:23;80.07;;;45.13;;
51499;SDS011;39101;53.478;6.158;2023-04-09T04:39:49;86.57;;;47.50;;
51499;SDS011;39101;53.478;6.158;2023-04-09T04:42:15;81.13;;;45.87;;
51499;SDS011;39101;53.478;6.158;2023-04-09T04:44:42;86.57;;;48.83;;
51499;SDS011;39101;53.478;6.158;2023-04-09T04:47:08;83.40;;;46.93;;
51499;SDS011;39101;53.478;6.158;2023-04-09T04:49:33;82.37;;;47.37;;
51499;SDS011;39101;53.478;6.158;2023-04-09T04:51:59;83.63;;;46.03;;
51499;SDS011;39101;53.478;6.158;2023-04-09T04:54:25;77.07;;;43.97;;
51499;SDS011;39101;53.478;6.158;2023-04-09T04:56:51;78.67;;;42.70;;
51499;SDS011;39101;53.478;6.158;2023-04-09T04:59:16;74.83;;;41.90;;
51499;SDS011;39101;53.478;6.158;2023-04-09T05:01:42;75.10;;;39.87;;
51499;SDS011;39101;53.478;6.158;2023-04-09T05:04:08;73.13;;;41.10;;
51499;SDS011;39101;53.478;6.158;2023-04-09T05:06:33;69.03;;;39.67;;
51499;SDS011;39101;53.478;6.158;2023-04-09T05:08:59;64.83;;;39.13;;
51499;SDS011;39101;53.478;6.158;2023-04-09T05:11:25;65.87;;;38.87;;
51499;SDS011;39101;53.478;6.158;2023-04-09T05:13:51;64.77;;;36.87;;
51499;SDS011;39101;53.478;6.158;2023-04-09T05:16:18;66.27;;;37.53;;
51499;SDS011;39101;53.478;6.158;2023-04-09T05:18:44;68.83;;;37.27;;
51499;SDS011;39101;53.478;6.158;2023-04-09T05:21:10;61.70;;;38.13;;
51499;SDS011;39101;53.478;6.158;2023-04-09T05:23:36;65.93;;;37.03;;
51499;SDS011;39101;53.478;6.158;2023-04-09T05:26:01;68.07;;;38.33;;
51499;SDS011;39101;53.478;6.158;2023-04-09T05:28:27;63.00;;;35.47;;
51499;SDS011;39101;53.478;6.158;2023-04-09T05:30:53;66.50;;;36.77;;
51499;SDS011;39101;53.478;6.158;2023-04-09T05:33:18;63.27;;;36.57;;
51499;SDS011;39101;53.478;6.158;2023-04-09T05:35:44;61.33;;;35.50;;
51499;SDS011;39101;53.478;6.158;2023-04-09T05:38:10;66.47;;;37.13;;
51499;SDS011;39101;53.478;6.158;2023-04-09T05:40:37;63.80;;;36.97;;
51499;SDS011;39101;53.478;6.158;2023-04-09T05:43:03;56.97;;;32.67;;
51499;SDS011;39101;53.478;6.158;2023-04-09T05:45:29;60.40;;;34.50;;
51499;SDS011;39101;53.478;6.158;2023-04-09T05:47:55;59.83;;;34.50;;
51499;SDS011;39101;53.478;6.158;2023-04-09T05:50:21;60.40;;;34.80;;
51499;SDS011;39101;53.478;6.158;2023-04-09T05:52:47;62.53;;;34.37;;
51499;SDS011;39101;53.478;6.158;2023-04-09T05:55:12;61.30;;;34.83;;
51499;SDS011;39101;53.478;6.158;2023-04-09T05:57:38;61.03;;;34.67;;
51499;SDS011;39101;53.478;6.158;2023-04-09T06:00:04;61.23;;;33.90;;
51499;SDS011;39101;53.478;6.158;2023-04-09T06:02:30;57.77;;;33.90;;
51499;SDS011;39101;53.478;6.158;2023-04-09T06:04:56;58.03;;;34.27;;
51499;SDS011;39101;53.478;6.158;2023-04-09T06:07:22;61.73;;;36.60;;
51499;SDS011;39101;53.478;6.158;2023-04-09T06:09:47;58.63;;;35.10;;
51499;SDS011;39101;53.478;6.158;2023-04-09T06:12:13;55.90;;;33.80;;
51499;SDS011;39101;53.478;6.158;2023-04-09T06:14:39;54.47;;;33.70;;
51499;SDS011;39101;53.478;6.158;2023-04-09T06:17:05;53.77;;;33.20;;
51499;SDS011;39101;53.478;6.158;2023-04-09T06:19:31;62.80;;;35.43;;
51499;SDS011;39101;53.478;6.158;2023-04-09T06:21:56;56.00;;;34.40;;
51499;SDS011;39101;53.478;6.158;2023-04-09T06:24:22;63.47;;;35.87;;
51499;SDS011;39101;53.478;6.158;2023-04-09T06:26:48;55.50;;;34.93;;
51499;SDS011;39101;53.478;6.158;2023-04-09T06:29:14;54.17;;;33.00;;
51499;SDS011;39101;53.478;6.158;2023-04-09T06:31:40;55.77;;;33.13;;
51499;SDS011;39101;53.478;6.158;2023-04-09T06:34:06;59.13;;;34.77;;
51499;SDS011;39101;53.478;6.158;2023-04-09T06:36:32;57.73;;;34.73;;
51499;SDS011;39101;53.478;6.158;2023-04-09T06:38:58;59.83;;;35.83;;
51499;SDS011;39101;53.478;6.158;2023-04-09T06:41:24;61.00;;;37.63;;
51499;SDS011;39101;53.478;6.158;2023-04-09T06:43:50;63.73;;;36.03;;
51499;SDS011;39101;53.478;6.158;2023-04-09T06:46:16;58.80;;;34.23;;
51499;SDS011;39101;53.478;6.158;2023-04-09T06:48:44;57.70;;;34.70;;
51499;SDS011;39101;53.478;6.158;2023-04-09T06:51:10;56.77;;;34.93;;
51499;SDS011;39101;53.478;6.158;2023-04-09T06:53:37;55.77;;;33.63;;
51499;SDS011;39101;53.478;6.158;2023-04-09T06:56:03;52.73;;;34.23;;
51499;SDS011;39101;53.478;6.158;2023-04-09T06:58:30;56.90;;;34.87;;
51499;SDS011;39101;53.478;6.158;2023-04-09T07:00:55;52.80;;;34.47;;
51499;SDS011;39101;53.478;6.158;2023-04-09T07:03:21;64.93;;;38.57;;
51499;SDS011;39101;53.478;6.158;2023-04-09T07:05:47;64.93;;;39.37;;
51499;SDS011;39101;53.478;6.158;2023-04-09T07:08:13;57.70;;;35.80;;
51499;SDS011;39101;53.478;6.158;2023-04-09T07:10:39;48.63;;;31.20;;
51499;SDS011;39101;53.478;6.158;2023-04-09T07:13:05;46.70;;;30.97;;
51499;SDS011;39101;53.478;6.158;2023-04-09T07:15:31;53.70;;;33.57;;
51499;SDS011;39101;53.478;6.158;2023-04-09T07:17:56;61.43;;;37.10;;
51499;SDS011;39101;53.478;6.158;2023-04-09T07:20:22;56.90;;;36.37;;
51499;SDS011;39101;53.478;6.158;2023-04-09T07:22:48;66.57;;;39.93;;
51499;SDS011;39101;53.478;6.158;2023-04-09T07:25:14;60.37;;;39.50;;
51499;SDS011;39101;53.478;6.158;2023-04-09T07:27:40;61.30;;;37.73;;
51499;SDS011;39101;53.478;6.158;2023-04-09T07:30:07;65.83;;;40.03;;
51499;SDS011;39101;53.478;6.158;2023-04-09T07:32:33;57.00;;;36.00;;
51499;SDS011;39101;53.478;6.158;2023-04-09T07:34:58;57.90;;;35.27;;
51499;SDS011;39101;53.478;6.158;2023-04-09T07:37:24;50.13;;;34.13;;
51499;SDS011;39101;53.478;6.158;2023-04-09T07:39:51;52.23;;;33.43;;
51499;SDS011;39101;53.478;6.158;2023-04-09T07:42:17;49.17;;;30.20;;
51499;SDS011;39101;53.478;6.158;2023-04-09T07:44:43;44.33;;;30.13;;
51499;SDS011;39101;53.478;6.158;2023-04-09T07:47:09;49.00;;;32.47;;
51499;SDS011;39101;53.478;6.158;2023-04-09T07:49:35;49.63;;;32.67;;
51499;SDS011;39101;53.478;6.158;2023-04-09T07:52:02;53.70;;;35.10;;
51499;SDS011;39101;53.478;6.158;2023-04-09T07:54:28;55.37;;;33.30;;
51499;SDS011;39101;53.478;6.158;2023-04-09T07:56:55;51.57;;;33.63;;
51499;SDS011;39101;53.478;6.158;2023-04-09T07:59:22;47.23;;;31.13;;
51499;SDS011;39101;53.478;6.158;2023-04-09T08:01:47;44.07;;;28.07;;
51499;SDS011;39101;53.478;6.158;2023-04-09T08:04:13;44.73;;;29.10;;
51499;SDS011;39101;53.478;6.158;2023-04-09T08:06:39;44.77;;;28.97;;
51499;SDS011;39101;53.478;6.158;2023-04-09T08:09:05;45.03;;;30.00;;
51499;SDS011;39101;53.478;6.158;2023-04-09T08:11:31;44.67;;;29.87;;
51499;SDS011;39101;53.478;6.158;2023-04-09T08:13:57;44.43;;;29.73;;
51499;SDS011;39101;53.478;6.158;2023-04-09T08:16:25;41.23;;;28.67;;
51499;SDS011;39101;53.478;6.158;2023-04-09T08:18:51;44.97;;;27.60;;
51499;SDS011;39101;53.478;6.158;2023-04-09T08:21:17;44.87;;;29.23;;
51499;SDS011;39101;53.478;6.158;2023-04-09T08:23:43;43.10;;;29.03;;
51499;SDS011;39101;53.478;6.158;2023-04-09T08:26:09;40.97;;;25.37;;
51499;SDS011;39101;53.478;6.158;2023-04-09T08:28:34;42.80;;;27.37;;
51499;SDS011;39101;53.478;6.158;2023-04-09T08:31:00;41.33;;;27.63;;
51499;SDS011;39101;53.478;6.158;2023-04-09T08:33:26;37.83;;;25.43;;
51499;SDS011;39101;53.478;6.158;2023-04-09T08:35:52;36.43;;;26.40;;
51499;SDS011;39101;53.478;6.158;2023-04-09T08:38:18;41.07;;;26.13;;
51499;SDS011;39101;53.478;6.158;2023-04-09T08:40:43;39.77;;;26.43;;
51499;SDS011;39101;53.478;6.158;2023-04-09T08:43:09;44.77;;;26.93;;
51499;SDS011;39101;53.478;6.158;2023-04-09T08:45:39;38.77;;;27.70;;
51499;SDS011;39101;53.478;6.158;2023-04-09T08:48:05;38.80;;;27.13;;
51499;SDS011;39101;53.478;6.158;2023-04-09T08:50:34;40.73;;;27.07;;
51499;SDS011;39101;53.478;6.158;2023-04-09T08:53:04;40.60;;;27.40;;
51499;SDS011;39101;53.478;6.158;2023-04-09T08:55:30;39.38;;;26.63;;
51499;SDS011;39101;53.478;6.158;2023-04-09T08:57:58;39.53;;;26.83;;
51499;SDS011;39101;53.478;6.158;2023-04-09T09:00:25;39.50;;;26.40;;
51499;SDS011;39101;53.478;6.158;2023-04-09T09:03:01;41.40;;;28.03;;
51499;SDS011;39101;53.478;6.158;2023-04-09T09:05:35;40.37;;;27.67;;
51499;SDS011;39101;53.478;6.158;2023-04-09T09:08:01;39.27;;;26.20;;
51499;SDS011;39101;53.478;6.158;2023-04-09T09:10:40;42.70;;;28.60;;
51499;SDS011;39101;53.478;6.158;2023-04-09T09:13:16;39.33;;;27.00;;
51499;SDS011;39101;53.478;6.158;2023-04-09T09:15:46;41.83;;;27.03;;
51499;SDS011;39101;53.478;6.158;2023-04-09T09:18:15;39.67;;;26.57;;
51499;SDS011;39101;53.478;6.158;2023-04-09T09:20:41;41.30;;;28.50;;
51499;SDS011;39101;53.478;6.158;2023-04-09T09:23:07;38.80;;;26.43;;
51499;SDS011;39101;53.478;6.158;2023-04-09T09:25:37;38.40;;;25.70;;
51499;SDS011;39101;53.478;6.158;2023-04-09T09:28:07;33.42;;;25.02;;
51499;SDS011;39101;53.478;6.158;2023-04-09T09:30:35;37.60;;;26.07;;
51499;SDS011;39101;53.478;6.158;2023-04-09T09:33:04;39.80;;;27.27;;
51499;SDS011;39101;53.478;6.158;2023-04-09T09:38:12;39.17;;;26.03;;
51499;SDS011;39101;53.478;6.158;2023-04-09T09:40:39;36.33;;;25.20;;
51499;SDS011;39101;53.478;6.158;2023-04-09T09:43:06;40.53;;;26.43;;
51499;SDS011;39101;53.478;6.158;2023-04-09T09:45:31;40.27;;;27.23;;
51499;SDS011;39101;53.478;6.158;2023-04-09T09:47:57;42.33;;;26.73;;
51499;SDS011;39101;53.478;6.158;2023-04-09T09:50:23;37.63;;;25.77;;
51499;SDS011;39101;53.478;6.158;2023-04-09T09:52:50;42.40;;;28.33;;
51499;SDS011;39101;53.478;6.158;2023-04-09T09:55:23;42.80;;;28.20;;
51499;SDS011;39101;53.478;6.158;2023-04-09T09:57:51;42.37;;;27.97;;
51499;SDS011;39101;53.478;6.158;2023-04-09T10:00:19;44.87;;;28.93;;
51499;SDS011;39101;53.478;6.158;2023-04-09T10:03:03;43.78;;;28.55;;
51499;SDS011;39101;53.478;6.158;2023-04-09T10:05:45;41.20;;;26.23;;
51499;SDS011;39101;53.478;6.158;2023-04-09T10:08:12;41.77;;;27.83;;
51499;SDS011;39101;53.478;6.158;2023-04-09T10:10:39;41.83;;;26.60;;
51499;SDS011;39101;53.478;6.158;2023-04-09T10:13:06;41.10;;;27.37;;
51499;SDS011;39101;53.478;6.158;2023-04-09T10:15:38;37.47;;;26.03;;
51499;SDS011;39101;53.478;6.158;2023-04-09T10:18:07;42.53;;;27.10;;
51499;SDS011;39101;53.478;6.158;2023-04-09T10:20:35;42.97;;;27.83;;
51499;SDS011;39101;53.478;6.158;2023-04-09T10:23:08;40.63;;;26.20;;
51499;SDS011;39101;53.478;6.158;2023-04-09T10:25:40;41.50;;;27.20;;
51499;SDS011;39101;53.478;6.158;2023-04-09T10:28:13;45.57;;;28.47;;
51499;SDS011;39101;53.478;6.158;2023-04-09T10:30:42;36.70;;;25.50;;
51499;SDS011;39101;53.478;6.158;2023-04-09T10:33:12;34.97;;;23.73;;
51499;SDS011;39101;53.478;6.158;2023-04-09T10:35:40;36.30;;;24.63;;
51499;SDS011;39101;53.478;6.158;2023-04-09T10:38:08;34.77;;;23.80;;
51499;SDS011;39101;53.478;6.158;2023-04-09T10:40:55;34.67;;;24.63;;
51499;SDS011;39101;53.478;6.158;2023-04-09T10:43:20;35.23;;;24.17;;
51499;SDS011;39101;53.478;6.158;2023-04-09T10:45:48;38.93;;;26.37;;
51499;SDS011;39101;53.478;6.158;2023-04-09T10:48:18;38.25;;;24.65;;
51499;SDS011;39101;53.478;6.158;2023-04-09T10:50:44;35.67;;;23.83;;
51499;SDS011;39101;53.478;6.158;2023-04-09T10:53:22;33.40;;;24.23;;
51499;SDS011;39101;53.478;6.158;2023-04-09T10:55:50;37.13;;;25.70;;
51499;SDS011;39101;53.478;6.158;2023-04-09T10:58:19;37.90;;;24.27;;
51499;SDS011;39101;53.478;6.158;2023-04-09T11:00:45;36.15;;;24.58;;
51499;SDS011;39101;53.478;6.158;2023-04-09T11:03:28;37.60;;;24.77;;
51499;SDS011;39101;53.478;6.158;2023-04-09T11:08:33;36.97;;;24.40;;
51499;SDS011;39101;53.478;6.158;2023-04-09T11:11:00;37.53;;;24.98;;
51499;SDS011;39101;53.478;6.158;2023-04-09T11:13:27;36.38;;;25.08;;
51499;SDS011;39101;53.478;6.158;2023-04-09T11:15:54;35.97;;;25.38;;
51499;SDS011;39101;53.478;6.158;2023-04-09T11:18:25;36.60;;;25.85;;
51499;SDS011;39101;53.478;6.158;2023-04-09T11:20:55;40.70;;;26.85;;
51499;SDS011;39101;53.478;6.158;2023-04-09T11:23:23;36.60;;;25.20;;
51499;SDS011;39101;53.478;6.158;2023-04-09T11:25:50;36.60;;;25.50;;
51499;SDS011;39101;53.478;6.158;2023-04-09T11:28:16;35.55;;;25.65;;
51499;SDS011;39101;53.478;6.158;2023-04-09T11:30:43;36.05;;;25.77;;
51499;SDS011;39101;53.478;6.158;2023-04-09T11:33:10;40.15;;;26.02;;
51499;SDS011;39101;53.478;6.158;2023-04-09T11:35:37;35.63;;;25.55;;
51499;SDS011;39101;53.478;6.158;2023-04-09T11:38:06;35.60;;;25.40;;
51499;SDS011;39101;53.478;6.158;2023-04-09T11:40:33;33.70;;;24.13;;
51499;SDS011;39101;53.478;6.158;2023-04-09T11:42:58;39.60;;;27.27;;
51499;SDS011;39101;53.478;6.158;2023-04-09T11:45:26;33.85;;;25.70;;
51499;SDS011;39101;53.478;6.158;2023-04-09T11:47:53;33.58;;;24.58;;
51499;SDS011;39101;53.478;6.158;2023-04-09T11:50:19;36.83;;;24.58;;
51499;SDS011;39101;53.478;6.158;2023-04-09T11:52:46;36.30;;;24.35;;
51499;SDS011;39101;53.478;6.158;2023-04-09T11:55:21;30.50;;;24.17;;
51499;SDS011;39101;53.478;6.158;2023-04-09T11:57:52;33.47;;;24.65;;
51499;SDS011;39101;53.478;6.158;2023-04-09T12:00:20;33.65;;;24.08;;
51499;SDS011;39101;53.478;6.158;2023-04-09T12:02:49;31.98;;;23.60;;
51499;SDS011;39101;53.478;6.158;2023-04-09T12:05:23;33.50;;;24.38;;
51499;SDS011;39101;53.478;6.158;2023-04-09T12:07:50;31.83;;;24.70;;
51499;SDS011;39101;53.478;6.158;2023-04-09T12:10:16;31.90;;;25.08;;
51499;SDS011;39101;53.478;6.158;2023-04-09T12:12:43;30.90;;;24.08;;
51499;SDS011;39101;53.478;6.158;2023-04-09T12:15:18;32.45;;;24.58;;
51499;SDS011;39101;53.478;6.158;2023-04-09T12:17:49;31.42;;;23.33;;
51499;SDS011;39101;53.478;6.158;2023-04-09T12:20:30;31.95;;;23.10;;
51499;SDS011;39101;53.478;6.158;2023-04-09T12:23:04;33.83;;;23.92;;
51499;SDS011;39101;53.478;6.158;2023-04-09T12:25:35;32.50;;;23.83;;
51499;SDS011;39101;53.478;6.158;2023-04-09T12:28:02;32.25;;;23.67;;
51499;SDS011;39101;53.478;6.158;2023-04-09T12:30:29;33.60;;;25.48;;
51499;SDS011;39101;53.478;6.158;2023-04-09T12:32:56;31.35;;;23.75;;
51499;SDS011;39101;53.478;6.158;2023-04-09T12:35:22;30.70;;;23.92;;
51499;SDS011;39101;53.478;6.158;2023-04-09T12:37:49;32.30;;;23.38;;
51499;SDS011;39101;53.478;6.158;2023-04-09T12:40:15;34.22;;;25.10;;
51499;SDS011;39101;53.478;6.158;2023-04-09T12:42:42;33.60;;;23.80;;
51499;SDS011;39101;53.478;6.158;2023-04-09T12:45:11;29.65;;;23.50;;
51499;SDS011;39101;53.478;6.158;2023-04-09T12:47:38;35.90;;;25.33;;
51499;SDS011;39101;53.478;6.158;2023-04-09T12:50:05;33.88;;;24.20;;
51499;SDS011;39101;53.478;6.158;2023-04-09T12:52:32;29.70;;;23.65;;
51499;SDS011;39101;53.478;6.158;2023-04-09T12:54:58;32.22;;;24.30;;
51499;SDS011;39101;53.478;6.158;2023-04-09T12:57:24;32.83;;;24.52;;
51499;SDS011;39101;53.478;6.158;2023-04-09T12:59:50;33.47;;;24.70;;
51499;SDS011;39101;53.478;6.158;2023-04-09T13:02:16;32.72;;;24.73;;
51499;SDS011;39101;53.478;6.158;2023-04-09T13:04:42;35.75;;;26.80;;
51499;SDS011;39101;53.478;6.158;2023-04-09T13:07:08;32.88;;;24.95;;
51499;SDS011;39101;53.478;6.158;2023-04-09T13:09:33;37.42;;;25.75;;
51499;SDS011;39101;53.478;6.158;2023-04-09T13:12:00;32.35;;;24.48;;
51499;SDS011;39101;53.478;6.158;2023-04-09T13:14:26;31.77;;;25.67;;
51499;SDS011;39101;53.478;6.158;2023-04-09T13:16:51;37.03;;;26.15;;
51499;SDS011;39101;53.478;6.158;2023-04-09T13:19:18;33.28;;;24.85;;
51499;SDS011;39101;53.478;6.158;2023-04-09T13:21:43;33.22;;;25.17;;
51499;SDS011;39101;53.478;6.158;2023-04-09T13:24:09;33.58;;;26.15;;
51499;SDS011;39101;53.478;6.158;2023-04-09T13:26:35;34.53;;;25.55;;
51499;SDS011;39101;53.478;6.158;2023-04-09T13:29:01;29.15;;;22.52;;
51499;SDS011;39101;53.478;6.158;2023-04-09T13:31:26;32.70;;;26.60;;
51499;SDS011;39101;53.478;6.158;2023-04-09T13:33:52;34.97;;;25.10;;
51499;SDS011;39101;53.478;6.158;2023-04-09T13:36:18;33.05;;;24.33;;
51499;SDS011;39101;53.478;6.158;2023-04-09T13:38:43;30.30;;;23.77;;
51499;SDS011;39101;53.478;6.158;2023-04-09T13:41:09;28.83;;;22.88;;
51499;SDS011;39101;53.478;6.158;2023-04-09T13:43:35;35.17;;;24.30;;
51499;SDS011;39101;53.478;6.158;2023-04-09T13:46:01;30.75;;;24.13;;
51499;SDS011;39101;53.478;6.158;2023-04-09T13:48:28;29.92;;;23.17;;
51499;SDS011;39101;53.478;6.158;2023-04-09T13:50:54;33.55;;;23.48;;
51499;SDS011;39101;53.478;6.158;2023-04-09T13:53:21;33.13;;;24.85;;
51499;SDS011;39101;53.478;6.158;2023-04-09T13:55:49;32.35;;;23.98;;
51499;SDS011;39101;53.478;6.158;2023-04-09T13:58:15;31.38;;;24.33;;
51499;SDS011;39101;53.478;6.158;2023-04-09T14:00:40;29.55;;;23.10;;
51499;SDS011;39101;53.478;6.158;2023-04-09T14:03:07;30.83;;;22.95;;
51499;SDS011;39101;53.478;6.158;2023-04-09T14:05:33;30.17;;;23.33;;
51499;SDS011;39101;53.478;6.158;2023-04-09T14:07:58;30.05;;;23.63;;
51499;SDS011;39101;53.478;6.158;2023-04-09T14:10:24;31.25;;;23.20;;
51499;SDS011;39101;53.478;6.158;2023-04-09T14:12:51;31.05;;;24.05;;
51499;SDS011;39101;53.478;6.158;2023-04-09T14:15:17;28.98;;;22.65;;
51499;SDS011;39101;53.478;6.158;2023-04-09T14:17:43;28.08;;;22.27;;
51499;SDS011;39101;53.478;6.158;2023-04-09T14:20:08;28.95;;;22.50;;
51499;SDS011;39101;53.478;6.158;2023-04-09T14:22:34;27.85;;;21.40;;
51499;SDS011;39101;53.478;6.158;2023-04-09T14:25:00;29.10;;;21.42;;
51499;SDS011;39101;53.478;6.158;2023-04-09T14:27:26;30.63;;;22.95;;
51499;SDS011;39101;53.478;6.158;2023-04-09T14:29:51;30.75;;;23.02;;
51499;SDS011;39101;53.478;6.158;2023-04-09T14:32:17;32.80;;;24.65;;